createdAt,value
2018-09-27T00:01:20.607Z,98197.98
2018-09-27T00:03:49.516Z,98200.31
2018-09-27T00:06:18.394Z,98197.03
2018-09-27T00:08:47.496Z,98201.45
2018-09-27T00:11:16.759Z,98201.06
2018-09-27T00:13:45.841Z,98198.35
2018-09-27T00:16:15.192Z,98200.74
2018-09-27T00:18:44.344Z,98197.71
2018-09-27T00:21:13.648Z,98206.08
2018-09-27T00:23:43.027Z,98208.48
2018-09-27T00:26:12.663Z,98208.55
2018-09-27T00:28:41.888Z,98202.32
2018-09-27T00:31:11.211Z,98200.38
2018-09-27T00:33:40.443Z,98206.31
2018-09-27T00:36:09.489Z,98195.91
2018-09-27T00:38:38.397Z,98192.11
2018-09-27T00:41:07.257Z,98199.77
2018-09-27T00:43:36.107Z,98200.09
2018-09-27T00:46:05.009Z,98195.02
2018-09-27T00:48:33.899Z,98198.11
2018-09-27T00:51:02.748Z,98189.42
2018-09-27T00:53:31.648Z,98188.79
2018-09-27T00:56:00.534Z,98190.28
2018-09-27T00:58:29.476Z,98189.80
2018-09-27T01:00:58.387Z,98186.47
2018-09-27T01:03:27.640Z,98184.20
2018-09-27T01:05:56.943Z,98185.89
2018-09-27T01:08:26.252Z,98192.93
2018-09-27T01:10:55.560Z,98181.91
2018-09-27T01:13:24.844Z,98178.16
2018-09-27T01:15:54.158Z,98175.48
2018-09-27T01:18:23.349Z,98173.21
2018-09-27T01:20:52.249Z,98175.43
2018-09-27T01:23:21.209Z,98174.94
2018-09-27T01:25:50.157Z,98172.03
2018-09-27T01:28:19.032Z,98172.37
2018-09-27T01:30:47.892Z,98171.87
2018-09-27T01:33:16.799Z,98172.64
2018-09-27T01:35:45.652Z,98165.23
2018-09-27T01:38:14.881Z,98168.24
2018-09-27T01:40:44.227Z,98162.87
2018-09-27T01:43:13.487Z,98163.33
2018-09-27T01:45:42.862Z,98163.55
2018-09-27T01:48:12.232Z,98163.61
2018-09-27T01:50:41.544Z,98160.38
2018-09-27T01:53:10.827Z,98163.48
2018-09-27T01:55:39.980Z,98161.02
2018-09-27T01:58:09.180Z,98161.30
2018-09-27T02:00:38.495Z,98166.14
2018-09-27T02:03:07.780Z,98161.56
2018-09-27T02:05:37.065Z,98160.09
2018-09-27T02:08:06.385Z,98153.79
2018-09-27T02:10:35.660Z,98150.49
2018-09-27T02:13:04.864Z,98147.36
2018-09-27T02:15:34.187Z,98148.63
2018-09-27T02:18:03.616Z,98147.80
2018-09-27T02:20:32.906Z,98141.08
2018-09-27T02:23:02.211Z,98138.80
2018-09-27T02:25:31.419Z,98138.35
2018-09-27T02:28:00.579Z,98136.50
2018-09-27T02:30:29.868Z,98135.95
2018-09-27T02:32:59.171Z,98130.80
2018-09-27T02:35:28.468Z,98128.81
2018-09-27T02:37:57.803Z,98125.39
2018-09-27T02:40:27.103Z,98131.51
2018-09-27T02:42:56.373Z,98129.05
2018-09-27T02:45:25.582Z,98120.17
2018-09-27T02:47:54.904Z,98118.80
2018-09-27T02:50:24.223Z,98115.30
2018-09-27T02:52:53.596Z,98112.63
2018-09-27T02:55:22.950Z,98110.19
2018-09-27T02:57:52.204Z,98101.39
2018-09-27T03:00:21.480Z,98094.31
2018-09-27T03:02:50.788Z,98087.98
2018-09-27T03:05:19.952Z,98087.24
2018-09-27T03:07:48.818Z,98081.73
2018-09-27T03:10:17.702Z,98081.58
2018-09-27T03:12:46.544Z,98087.37
2018-09-27T03:15:15.460Z,98079.85
2018-09-27T03:17:44.344Z,98073.09
2018-09-27T03:20:13.239Z,98083.02
2018-09-27T03:22:42.139Z,98085.77
2018-09-27T03:25:11.033Z,98083.50
2018-09-27T03:27:39.883Z,98078.13
2018-09-27T03:30:08.817Z,98078.60
2018-09-27T03:32:38.003Z,98073.80
2018-09-27T03:35:07.256Z,98070.95
2018-09-27T03:37:36.564Z,98069.27
2018-09-27T03:40:05.842Z,98067.91
2018-09-27T03:42:35.180Z,98072.56
2018-09-27T03:45:04.432Z,98069.48
2018-09-27T03:47:33.623Z,98068.26
2018-09-27T03:50:02.871Z,98071.90
2018-09-27T03:52:32.184Z,98073.88
2018-09-27T03:55:01.361Z,98069.15
2018-09-27T03:57:30.559Z,98066.88
2018-09-27T03:59:59.882Z,98070.41
2018-09-27T04:02:29.223Z,98067.34
2018-09-27T04:04:58.500Z,98065.86
2018-09-27T04:07:27.640Z,98063.02
2018-09-27T04:09:56.857Z,98059.11
2018-09-27T04:12:26.067Z,98058.23
2018-09-27T04:14:54.924Z,98054.11
2018-09-27T04:17:23.775Z,98054.20
2018-09-27T04:19:52.643Z,98056.77
2018-09-27T04:22:21.623Z,98051.48
2018-09-27T04:24:50.959Z,98055.67
2018-09-27T04:27:20.309Z,98054.41
2018-09-27T04:29:49.599Z,98054.02
2018-09-27T04:32:18.751Z,98056.00
2018-09-27T04:34:48.012Z,98053.73
2018-09-27T04:37:17.334Z,98048.39
2018-09-27T04:39:46.764Z,98041.94
2018-09-27T04:42:16.118Z,98036.13
2018-09-27T04:44:45.367Z,98037.70
2018-09-27T04:47:14.616Z,98045.66
2018-09-27T04:49:43.973Z,98042.53
2018-09-27T04:52:13.866Z,98045.88
2018-09-27T04:54:44.793Z,98039.09
2018-09-27T04:57:14.195Z,98039.38
2018-09-27T04:59:43.480Z,98040.66
2018-09-27T05:02:12.859Z,98039.75
2018-09-27T05:04:42.107Z,98041.84
2018-09-27T05:07:11.352Z,98040.87
2018-09-27T05:09:40.897Z,98045.00
2018-09-27T05:12:10.367Z,98038.91
2018-09-27T05:14:39.607Z,98038.91
2018-09-27T05:17:08.869Z,98035.27
2018-09-27T05:19:38.222Z,98039.60
2018-09-27T05:22:07.471Z,98037.74
2018-09-27T05:24:36.777Z,98043.22
2018-09-27T05:27:06.130Z,98046.28
2018-09-27T05:29:35.392Z,98052.09
2018-09-27T05:32:04.743Z,98040.77
2018-09-27T05:34:33.664Z,98039.19
2018-09-27T05:37:02.951Z,98038.60
2018-09-27T05:39:32.189Z,98038.30
2018-09-27T05:42:01.528Z,98031.91
2018-09-27T05:44:30.784Z,98032.69
2018-09-27T05:47:00.072Z,98032.55
2018-09-27T05:49:29.415Z,98031.09
2018-09-27T05:51:58.802Z,98030.86
2018-09-27T05:54:28.073Z,98029.56
2018-09-27T05:56:57.544Z,98035.45
2018-09-27T05:59:26.744Z,98034.20
2018-09-27T06:01:56.269Z,98035.19
2018-09-27T06:04:25.531Z,98039.38
2018-09-27T06:06:54.823Z,98036.87
2018-09-27T06:09:23.955Z,98034.14
2018-09-27T06:11:53.191Z,98031.47
2018-09-27T06:14:22.448Z,98029.95
2018-09-27T06:16:51.555Z,98031.87
2018-09-27T06:19:21.058Z,98028.83
2018-09-27T06:21:50.364Z,98020.45
2018-09-27T06:24:19.573Z,98020.30
2018-09-27T06:26:48.839Z,98013.45
2018-09-27T06:29:18.084Z,98022.66
2018-09-27T06:31:47.251Z,98027.48
2018-09-27T06:34:16.496Z,98030.72
2018-09-27T06:36:45.656Z,98034.70
2018-09-27T06:39:14.931Z,98033.13
2018-09-27T06:41:44.231Z,98029.46
2018-09-27T06:44:13.650Z,98026.96
2018-09-27T06:46:43.124Z,98034.83
2018-09-27T06:49:12.351Z,98038.14
2018-09-27T06:51:41.655Z,98037.80
2018-09-27T06:54:11.096Z,98036.02
2018-09-27T06:56:40.628Z,98031.98
2018-09-27T06:59:09.763Z,98048.98
2018-09-27T07:01:39.083Z,98047.11
2018-09-27T07:04:08.579Z,98040.81
2018-09-27T07:06:38.020Z,98041.38
2018-09-27T07:09:10.075Z,98041.53
2018-09-27T07:11:39.476Z,98041.61
2018-09-27T07:14:09.241Z,98046.45
2018-09-27T07:16:38.542Z,98040.11
2018-09-27T07:19:08.036Z,98037.23
2018-09-27T07:21:37.412Z,98032.86
2018-09-27T07:24:06.702Z,98032.88
2018-09-27T07:26:36.001Z,98024.00
2018-09-27T07:29:05.167Z,98028.17
2018-09-27T07:31:34.459Z,98023.55
2018-09-27T07:34:03.736Z,98020.28
2018-09-27T07:36:33.099Z,98018.90
2018-09-27T07:39:02.394Z,98016.27
2018-09-27T07:41:31.680Z,98012.77
2018-09-27T07:44:00.956Z,98013.77
2018-09-27T07:46:30.232Z,98012.28
2018-09-27T07:48:59.577Z,98001.73
2018-09-27T07:51:28.892Z,97998.86
2018-09-27T07:53:58.241Z,98002.03
2018-09-27T07:56:27.712Z,98001.30
2018-09-27T07:58:57.080Z,98003.68
2018-09-27T08:01:26.444Z,97996.28
2018-09-27T08:03:55.773Z,97992.25
2018-09-27T08:06:24.990Z,97998.57
2018-09-27T08:08:54.353Z,97991.88
2018-09-27T08:11:23.626Z,97995.45
2018-09-27T08:13:52.867Z,97997.05
2018-09-27T08:16:22.131Z,97990.20
2018-09-27T08:18:51.460Z,97995.94
2018-09-27T08:21:21.032Z,97996.91
2018-09-27T08:23:50.254Z,97995.72
2018-09-27T08:26:19.235Z,97986.97
2018-09-27T08:28:48.119Z,97990.75
2018-09-27T08:31:17.026Z,97997.51
2018-09-27T08:33:45.951Z,97992.28
2018-09-27T08:36:14.904Z,97987.94
2018-09-27T08:38:43.778Z,97989.13
2018-09-27T08:41:13.595Z,97994.80
2018-09-27T08:43:42.489Z,97992.16
2018-09-27T08:46:11.662Z,97988.69
2018-09-27T08:48:40.801Z,97982.61
2018-09-27T08:51:10.015Z,97978.55
2018-09-27T08:53:39.403Z,97981.09
2018-09-27T08:56:08.720Z,97974.95
2018-09-27T08:58:37.824Z,97975.43
2018-09-27T09:01:06.991Z,97972.50
2018-09-27T09:03:36.291Z,97969.48
2018-09-27T09:06:05.488Z,97963.97
2018-09-27T09:08:34.344Z,97962.37
2018-09-27T09:11:03.251Z,97962.75
2018-09-27T09:13:32.188Z,97960.59
2018-09-27T09:16:01.075Z,97952.26
2018-09-27T09:18:29.942Z,97955.32
2018-09-27T09:20:58.823Z,97945.98
2018-09-27T09:23:27.717Z,97949.77
2018-09-27T09:25:56.634Z,97946.20
2018-09-27T09:28:25.540Z,97937.05
2018-09-27T09:30:54.381Z,97937.80
2018-09-27T09:33:23.394Z,97940.80
2018-09-27T09:35:52.352Z,97930.74
2018-09-27T09:38:21.174Z,97930.23
2018-09-27T09:40:50.014Z,97932.73
2018-09-27T09:43:18.984Z,97925.61
2018-09-27T09:45:47.924Z,97930.61
2018-09-27T09:48:16.828Z,97923.88
2018-09-27T09:50:45.782Z,97923.83
2018-09-27T09:53:14.987Z,97909.43
2018-09-27T09:55:43.976Z,97910.38
2018-09-27T09:58:12.892Z,97908.86
2018-09-27T10:00:41.826Z,97906.38
2018-09-27T10:03:10.739Z,97906.39
2018-09-27T10:05:39.683Z,97899.13
2018-09-27T10:08:08.556Z,97900.36
2018-09-27T10:10:37.491Z,97904.94
2018-09-27T10:13:06.387Z,97896.42
2018-09-27T10:15:35.354Z,97893.78
2018-09-27T10:18:04.338Z,97890.34
2018-09-27T10:20:33.234Z,97890.80
2018-09-27T10:23:02.125Z,97881.64
2018-09-27T10:25:31.012Z,97881.98
2018-09-27T10:27:59.915Z,97880.97
2018-09-27T10:30:28.781Z,97883.61
2018-09-27T10:32:57.666Z,97876.50
2018-09-27T10:35:26.560Z,97871.75
2018-09-27T10:37:55.440Z,97873.80
2018-09-27T10:40:24.387Z,97871.08
2018-09-27T10:42:53.287Z,97858.67
2018-09-27T10:45:22.605Z,97864.22
2018-09-27T10:47:51.804Z,97862.73
2018-09-27T10:50:21.043Z,97852.42
2018-09-27T10:52:50.369Z,97851.56
2018-09-27T10:55:19.697Z,97852.06
2018-09-27T10:57:48.968Z,97849.17
2018-09-27T11:00:18.254Z,97841.47
2018-09-27T11:02:48.035Z,97841.81
2018-09-27T11:05:17.256Z,97838.31
2018-09-27T11:07:46.614Z,97841.03
2018-09-27T11:10:15.875Z,97840.94
2018-09-27T11:12:45.205Z,97837.34
2018-09-27T11:15:14.474Z,97836.50
2018-09-27T11:17:43.845Z,97827.00
2018-09-27T11:20:13.152Z,97825.01
2018-09-27T11:22:42.358Z,97818.86
2018-09-27T11:25:11.555Z,97815.57
2018-09-27T11:27:40.841Z,97810.32
2018-09-27T11:30:15.126Z,97806.02
2018-09-27T11:32:45.552Z,97798.09
2018-09-27T11:35:15.054Z,97797.79
2018-09-27T11:37:44.340Z,97794.25
2018-09-27T11:40:13.495Z,97789.63
2018-09-27T11:42:42.897Z,97789.89
2018-09-27T11:45:12.028Z,97780.81
2018-09-27T11:47:41.311Z,97781.55
2018-09-27T11:50:10.577Z,97774.19
2018-09-27T11:52:40.061Z,97768.69
2018-09-27T11:55:09.450Z,97767.30
2018-09-27T11:57:38.617Z,97758.44
2018-09-27T12:00:08.933Z,97752.84
2018-09-27T12:02:38.532Z,97749.78
2018-09-27T12:05:07.915Z,97746.80
2018-09-27T12:07:37.315Z,97743.16
2018-09-27T12:10:06.596Z,97738.74
2018-09-27T12:12:35.759Z,97738.88
2018-09-27T12:15:05.147Z,97731.95
2018-09-27T12:17:34.420Z,97727.23
2018-09-27T12:20:03.747Z,97720.45
2018-09-27T12:22:32.828Z,97720.14
2018-09-27T12:25:02.054Z,97715.34
2018-09-27T12:27:31.324Z,97712.27
2018-09-27T12:30:00.572Z,97711.00
2018-09-27T12:32:29.771Z,97706.69
2018-09-27T12:34:58.911Z,97705.50
2018-09-27T12:37:28.229Z,97698.54
2018-09-27T12:39:57.618Z,97695.65
2018-09-27T12:42:27.048Z,97693.84
2018-09-27T12:44:56.439Z,97692.19
2018-09-27T12:47:25.870Z,97681.12
2018-09-27T12:49:55.012Z,97676.55
2018-09-27T12:52:24.308Z,97674.53
2018-09-27T12:54:53.526Z,97665.33
2018-09-27T12:57:22.833Z,97668.67
2018-09-27T12:59:52.171Z,97659.88
2018-09-27T13:02:21.440Z,97653.66
2018-09-27T13:04:50.677Z,97649.05
2018-09-27T13:07:19.816Z,97649.05
2018-09-27T13:09:49.203Z,97649.38
2018-09-27T13:12:18.459Z,97639.06
2018-09-27T13:14:47.733Z,97638.34
2018-09-27T13:17:17.070Z,97632.95
2018-09-27T13:19:46.331Z,97631.16
2018-09-27T13:22:15.623Z,97624.41
2018-09-27T13:24:44.968Z,97623.09
2018-09-27T13:27:14.251Z,97616.31
2018-09-27T13:29:43.523Z,97621.50
2018-09-27T13:32:12.812Z,97609.05
2018-09-27T13:34:42.135Z,97604.11
2018-09-27T13:37:11.477Z,97598.96
2018-09-27T13:39:40.641Z,97601.09
2018-09-27T13:42:16.303Z,97591.69
2018-09-27T13:44:45.173Z,97587.67
2018-09-27T13:47:14.063Z,97576.63
2018-09-27T13:49:42.935Z,97569.75
2018-09-27T13:52:12.088Z,97570.75
2018-09-27T13:54:41.055Z,97570.96
2018-09-27T13:57:10.412Z,97564.72
2018-09-27T13:59:39.763Z,97562.00
2018-09-27T14:02:09.075Z,97561.48
2018-09-27T14:04:38.384Z,97558.52
2018-09-27T14:07:07.665Z,97563.02
2018-09-27T14:09:36.927Z,97557.98
2018-09-27T14:12:06.131Z,97555.94
2018-09-27T14:14:35.701Z,97548.53
2018-09-27T14:17:04.967Z,97547.02
2018-09-27T14:19:34.133Z,97541.55
2018-09-27T14:22:03.364Z,97537.69
2018-09-27T14:24:32.732Z,97536.58
2018-09-27T14:27:01.991Z,97529.00
2018-09-27T14:29:30.921Z,97530.79
2018-09-27T14:32:00.407Z,97527.44
2018-09-27T14:34:29.343Z,97526.34
2018-09-27T14:36:58.224Z,97519.32
2018-09-27T14:39:27.207Z,97518.44
2018-09-27T14:41:56.119Z,97522.91
2018-09-27T14:44:25.419Z,97513.94
2018-09-27T14:46:54.595Z,97507.31
2018-09-27T14:49:23.783Z,97509.30
2018-09-27T14:51:53.088Z,97513.27
2018-09-27T14:54:22.371Z,97509.72
2018-09-27T14:56:51.835Z,97498.80
2018-09-27T14:59:21.131Z,97499.70
2018-09-27T15:01:50.293Z,97503.27
2018-09-27T15:04:19.474Z,97500.81
2018-09-27T15:06:48.838Z,97498.03
2018-09-27T15:09:17.978Z,97495.73
2018-09-27T15:11:47.195Z,97489.92
2018-09-27T15:14:16.373Z,97493.98
2018-09-27T15:16:45.567Z,97484.16
2018-09-27T15:19:14.761Z,97482.23
2018-09-27T15:21:44.020Z,97477.19
2018-09-27T15:24:13.099Z,97473.99
2018-09-27T15:26:42.292Z,97464.13
2018-09-27T15:29:11.488Z,97462.75
2018-09-27T15:31:40.808Z,97462.63
2018-09-27T15:34:09.952Z,97456.82
2018-09-27T15:36:39.192Z,97449.09
2018-09-27T15:39:09.012Z,97451.42
2018-09-27T15:41:38.276Z,97443.16
2018-09-27T15:44:07.347Z,97450.79
2018-09-27T15:46:36.699Z,97445.30
2018-09-27T15:49:05.989Z,97441.64
2018-09-27T15:51:35.299Z,97436.25
2018-09-27T15:54:04.607Z,97435.48
2018-09-27T15:56:33.764Z,97439.55
2018-09-27T15:59:02.897Z,97433.06
2018-09-27T16:01:32.064Z,97431.69
2018-09-27T16:04:01.383Z,97433.73
2018-09-27T16:06:31.643Z,97425.70
2018-09-27T16:09:00.909Z,97420.50
2018-09-27T16:11:29.822Z,97417.05
2018-09-27T16:13:58.805Z,97415.06
2018-09-27T16:16:27.712Z,97414.38
2018-09-27T16:18:56.645Z,97407.31
2018-09-27T16:21:25.818Z,97413.88
2018-09-27T16:23:54.788Z,97417.03
2018-09-27T16:26:23.917Z,97408.95
2018-09-27T16:28:52.866Z,97406.33
2018-09-27T16:31:21.935Z,97408.55
2018-09-27T16:33:50.900Z,97400.63
2018-09-27T16:36:19.908Z,97398.16
2018-09-27T16:38:48.796Z,97399.65
2018-09-27T16:41:17.712Z,97399.19
2018-09-27T16:43:46.981Z,97396.95
2018-09-27T16:46:16.358Z,97391.38
2018-09-27T16:48:45.239Z,97386.15
2018-09-27T16:51:14.156Z,97393.07
2018-09-27T16:53:43.136Z,97389.28
2018-09-27T16:56:11.988Z,97385.63
2018-09-27T16:58:40.868Z,97387.48
2018-09-27T17:01:10.154Z,97389.89
2018-09-27T17:03:39.035Z,97384.15
2018-09-27T17:06:07.965Z,97379.23
2018-09-27T17:08:36.972Z,97384.28
2018-09-27T17:11:05.950Z,97382.07
2018-09-27T17:13:34.855Z,97373.82
2018-09-27T17:16:03.728Z,97380.02
2018-09-27T17:18:32.622Z,97377.02
2018-09-27T17:21:01.951Z,97379.67
2018-09-27T17:23:30.874Z,97378.75
2018-09-27T17:25:59.807Z,97379.87
2018-09-27T17:28:28.730Z,97377.41
2018-09-27T17:30:57.610Z,97377.58
2018-09-27T17:33:26.508Z,97376.13
2018-09-27T17:35:55.404Z,97379.03
2018-09-27T17:38:24.397Z,97376.79
2018-09-27T17:40:53.269Z,97372.25
2018-09-27T17:43:22.244Z,97372.31
2018-09-27T17:45:51.423Z,97372.74
2018-09-27T17:48:20.302Z,97374.23
2018-09-27T17:50:49.255Z,97370.47
2018-09-27T17:53:18.614Z,97375.51
2018-09-27T17:55:47.420Z,97374.65
2018-09-27T17:58:16.317Z,97372.66
2018-09-27T18:00:45.380Z,97372.41
2018-09-27T18:03:14.438Z,97369.95
2018-09-27T18:05:43.402Z,97373.44
2018-09-27T18:08:12.232Z,97369.72
2018-09-27T18:10:41.359Z,97373.25
2018-09-27T18:13:10.260Z,97371.03
2018-09-27T18:15:39.147Z,97382.08
2018-09-27T18:18:08.380Z,97385.66
2018-09-27T18:20:37.255Z,97386.00
2018-09-27T18:23:06.184Z,97378.44
2018-09-27T18:25:35.155Z,97378.70
2018-09-27T18:28:04.546Z,97387.14
2018-09-27T18:30:33.836Z,97388.80
2018-09-27T18:33:03.116Z,97385.31
2018-09-27T18:35:32.412Z,97386.66
2018-09-27T18:38:01.701Z,97384.09
2018-09-27T18:40:30.696Z,97387.33
2018-09-27T18:43:00.003Z,97377.78
2018-09-27T18:45:29.166Z,97375.06
2018-09-27T18:47:58.555Z,97374.56
2018-09-27T18:50:27.891Z,97380.92
2018-09-27T18:52:57.185Z,97380.69
2018-09-27T18:55:26.440Z,97375.48
2018-09-27T18:57:55.707Z,97372.25
2018-09-27T19:00:24.945Z,97372.37
2018-09-27T19:02:54.197Z,97366.94
2018-09-27T19:05:23.385Z,97367.25
2018-09-27T19:07:52.685Z,97364.72
2018-09-27T19:10:21.902Z,97363.44
2018-09-27T19:12:51.185Z,97360.61
2018-09-27T19:15:20.399Z,97359.92
2018-09-27T19:17:49.618Z,97354.05
2018-09-27T19:20:18.796Z,97362.09
2018-09-27T19:22:48.131Z,97355.96
2018-09-27T19:25:17.375Z,97359.59
2018-09-27T19:27:46.717Z,97353.08
2018-09-27T19:30:15.978Z,97351.34
2018-09-27T19:32:45.159Z,97348.30
2018-09-27T19:35:14.481Z,97348.30
2018-09-27T19:37:43.835Z,97354.82
2018-09-27T19:40:13.328Z,97353.03
2018-09-27T19:42:42.776Z,97344.67
2018-09-27T19:45:11.893Z,97348.60
2018-09-27T19:47:41.072Z,97343.73
2018-09-27T19:50:10.283Z,97338.80
2018-09-27T19:52:39.692Z,97339.85
2018-09-27T19:55:08.933Z,97339.85
2018-09-27T19:57:38.252Z,97337.30
2018-09-27T20:00:07.571Z,97341.22
2018-09-27T20:02:36.805Z,97336.08
2018-09-27T20:05:06.412Z,97341.00
2018-09-27T20:07:35.564Z,97343.88
2018-09-27T20:10:04.999Z,97345.41
2018-09-27T20:12:34.307Z,97349.55
2018-09-27T20:15:03.427Z,97342.07
2018-09-27T20:17:32.668Z,97343.64
2018-09-27T20:20:01.993Z,97342.91
2018-09-27T20:22:31.178Z,97340.06
2018-09-27T20:25:00.353Z,97342.13
2018-09-27T20:27:29.773Z,97335.69
2018-09-27T20:29:58.942Z,97338.00
2018-09-27T20:32:28.231Z,97336.70
2018-09-27T20:34:57.568Z,97335.91
2018-09-27T20:37:26.867Z,97333.59
2018-09-27T20:39:56.180Z,97335.43
2018-09-27T20:42:25.569Z,97335.45
2018-09-27T20:44:56.668Z,97335.45
2018-09-27T20:47:25.921Z,97338.77
2018-09-27T20:49:57.449Z,97336.44
2018-09-27T20:52:28.688Z,97336.97
2018-09-27T20:55:02.556Z,97343.20
2018-09-27T20:57:32.947Z,97337.00
2018-09-27T21:00:02.042Z,97339.08
2018-09-27T21:02:31.171Z,97334.16
2018-09-27T21:05:00.652Z,97335.47
2018-09-27T21:07:29.869Z,97333.92
2018-09-27T21:09:58.928Z,97335.70
2018-09-27T21:12:28.231Z,97338.80
2018-09-27T21:14:57.562Z,97335.92
2018-09-27T21:17:33.060Z,97332.57
2018-09-27T21:20:02.042Z,97329.22
2018-09-27T21:22:31.134Z,97327.91
2018-09-27T21:25:00.399Z,97331.52
2018-09-27T21:27:29.713Z,97331.00
2018-09-27T21:29:58.932Z,97332.05
2018-09-27T21:32:29.368Z,97332.05
2018-09-27T21:34:59.279Z,97327.64
2018-09-27T21:37:28.594Z,97327.90
2018-09-27T21:39:57.934Z,97331.53
2018-09-27T21:42:27.328Z,97329.44
2018-09-27T21:44:56.635Z,97326.09
2018-09-27T21:47:26.261Z,97319.63
2018-09-27T21:49:55.535Z,97326.61
2018-09-27T21:52:24.842Z,97321.18
2018-09-27T21:54:54.098Z,97320.67
2018-09-27T21:57:23.444Z,97318.87
2018-09-27T21:59:52.668Z,97314.47
2018-09-27T22:02:21.709Z,97319.86
2018-09-27T22:04:50.932Z,97316.50
2018-09-27T22:07:20.269Z,97315.98
2018-09-27T22:09:49.599Z,97315.76
2018-09-27T22:12:18.892Z,97310.83
2018-09-27T22:14:48.126Z,97310.30
2018-09-27T22:17:17.316Z,97304.08
2018-09-27T22:19:46.510Z,97299.70
2018-09-27T22:22:15.811Z,97300.70
2018-09-27T22:24:45.082Z,97304.58
2018-09-27T22:27:14.380Z,97302.77
2018-09-27T22:29:43.641Z,97302.77
2018-09-27T22:32:12.819Z,97302.98
2018-09-27T22:34:42.095Z,97302.98
2018-09-27T22:37:11.296Z,97297.52
2018-09-27T22:39:40.571Z,97300.35
2018-09-27T22:42:09.843Z,97294.65
2018-09-27T22:44:38.967Z,97287.98
2018-09-27T22:47:08.116Z,97288.24
2018-09-27T22:49:37.732Z,97287.41
2018-09-27T22:52:07.000Z,97289.20
2018-09-27T22:54:36.207Z,97282.91
2018-09-27T22:57:05.424Z,97286.98
2018-09-27T22:59:34.696Z,97278.50
2018-09-27T23:02:04.040Z,97280.03
2018-09-27T23:04:32.927Z,97283.91
2018-09-27T23:07:01.810Z,97282.69
2018-09-27T23:09:30.700Z,97276.51
2018-09-27T23:11:59.584Z,97280.05
2018-09-27T23:14:28.455Z,97273.55
2018-09-27T23:16:57.768Z,97273.09
2018-09-27T23:19:27.087Z,97274.88
2018-09-27T23:21:56.486Z,97280.05
2018-09-27T23:24:26.053Z,97276.08
2018-09-27T23:26:55.435Z,97281.95
2018-09-27T23:29:24.797Z,97283.78
2018-09-27T23:31:54.220Z,97273.94
2018-09-27T23:34:23.512Z,97275.73
2018-09-27T23:36:52.756Z,97277.05
2018-09-27T23:39:22.092Z,97275.30
2018-09-27T23:41:51.405Z,97268.06
2018-09-27T23:44:20.695Z,97271.67
2018-09-27T23:46:50.013Z,97268.05
2018-09-27T23:49:19.296Z,97271.08
2018-09-27T23:51:48.607Z,97275.45
2018-09-27T23:54:17.914Z,97266.91
2018-09-27T23:56:47.321Z,97266.39
2018-09-27T23:59:16.569Z,97272.06
